Terminal Aerodrome Forecast
Issued by NWS

Home | Current Version | Previous Version | Text Only | Print | Product List | Glossary On
Versions: 1 2 3 4 5 6 7 8 9 10 11 12 13 14
000
FTUS45 KTFX 022300
TAFHLN
TAF
KHLN 022335Z 0300/0324 VRB06KT P6SM FEW100 SCT200
     FM031000 26009KT P6SM SCT100 BKN120
     FM031400 30012G20KT P6SM SCT040 BKN100
      TEMPO 0314/0318 BKN040
     FM032000 30012G20KT P6SM SCT100=

USA.gov is the U.S. government's official web portal to all federal, state and local government web resources and services.